Flyingcloud — MMWL2 — position and weather

sailwx.info

Track history (hours):
 
Tides and Currents Weather Stations Pressure Air Temp Water Temp Dewpoint Dewpoint Depression Visibility Wind Speed Wind Dir Waves Ship Positions

Flyingcloud

Last reported at 2015-May-24 16:27 UTC. Time now 2015-May-25 03:22 UTC.
Position N 50°37' W 001°57'.

Length 10 m.

Type: Fishing. MMSI: 235087339.

Date/timePositionNaut miles runAvg speedWind from/ knotsBaromVisibWave heightAir tempDewpointWater temp
2015-May-24 16:27N 50°37' W 001°57'1 0.6
2015-May-24 15:29N 50°37' W 001°56'0 0.5
2015-May-24 14:34N 50°37' W 001°57'1 0.6
2015-May-24 13:33N 50°37' W 001°57'0 0.0
2015-May-23 16:12N 50°37' W 001°57'1 0.8
2015-May-23 15:32N 50°37' W 001°57'0 0.0
2015-May-23 14:32N 50°37' W 001°57'1 0.3
2015-May-23 12:33N 50°37' W 001°57'0 0.0
2015-May-23 09:15N 50°37' W 001°57'0 0.0
2015-May-23 08:33N 50°37' W 001°57'0 0.0
2015-May-23 07:31N 50°37' W 001°57'0 0.0
2015-May-21 14:33N 50°37' W 001°57'1 0.6
2015-May-21 13:33N 50°37' W 001°57'0 0.0
2015-May-21 12:33N 50°37' W 001°57'7 6.7
2015-May-21 11:33N 50°41' W 001°48'4 3.7
2015-May-21 10:33N 50°40' W 001°54'4 0.3
2015-May-20 20:33N 50°37' W 001°57'0 0.1
2015-May-20 19:28N 50°37' W 001°57'0 0.0
2015-May-20 18:33N 50°37' W 001°57'0 0.0
2015-May-20 17:33N 50°37' W 001°57'1 0.6
2015-May-20 16:33N 50°37' W 001°57'0 0.0
2015-May-20 12:30N 50°37' W 001°57'  
Track history (hours):
 
Tides and Currents Weather Stations Pressure Air Temp Water Temp Dewpoint Dewpoint Depression Visibility Wind Speed Wind Dir Waves Ship Positions

Flyingcloud

Last reported at 2015-May-24 16:27 UTC. Time now 2015-May-25 03:22 UTC.
Position N 50°37' W 001°57'.

Length 10 m.

Type: Fishing. MMSI: 235087339.

Date/timePositionNaut miles runAvg speedWind from/ knotsBaromVisibWave heightAir tempDewpointWater temp
2015-May-24 16:27N 50°37' W 001°57'1 0.6
2015-May-24 15:29N 50°37' W 001°56'0 0.5
2015-May-24 14:34N 50°37' W 001°57'1 0.6
2015-May-24 13:33N 50°37' W 001°57'0 0.0
2015-May-23 16:12N 50°37' W 001°57'1 0.8
2015-May-23 15:32N 50°37' W 001°57'0 0.0
2015-May-23 14:32N 50°37' W 001°57'1 0.3
2015-May-23 12:33N 50°37' W 001°57'0 0.0
2015-May-23 09:15N 50°37' W 001°57'0 0.0
2015-May-23 08:33N 50°37' W 001°57'0 0.0
2015-May-23 07:31N 50°37' W 001°57'0 0.0
2015-May-21 14:33N 50°37' W 001°57'1 0.6
2015-May-21 13:33N 50°37' W 001°57'0 0.0
2015-May-21 12:33N 50°37' W 001°57'7 6.7
2015-May-21 11:33N 50°41' W 001°48'4 3.7
2015-May-21 10:33N 50°40' W 001°54'4 0.3
2015-May-20 20:33N 50°37' W 001°57'0 0.1
2015-May-20 19:28N 50°37' W 001°57'0 0.0
2015-May-20 18:33N 50°37' W 001°57'0 0.0
2015-May-20 17:33N 50°37' W 001°57'1 0.6
2015-May-20 16:33N 50°37' W 001°57'0 0.0
2015-May-20 12:30N 50°37' W 001°57'  

Dump ship's entire track history